Time;durP1;ratioP1;P1;durP2;ratioP2;P2;SDS_P1;SDS_P2;PMS_P1;PMS_P2;Temp;Humidity;BMP_temperature;BMP_pressure;BME280_temperature;BME280_humidity;BME280_pressure;Samples;Min_cycle;Max_cycle;Signal;HPM_P1;HPM_P2
2022/06/26 00:01:12;;;;;;;0.00;0.00;;;20.40;97.50;;;;;;4992778;28;20441;-77
2022/06/26 00:03:38;;;;;;;0.00;0.00;;;20.40;97.30;;;;;;4995306;28;20031;-76
2022/06/26 00:06:04;;;;;;;0.00;0.00;;;20.40;97.30;;;;;;4995157;28;20069;-76
2022/06/26 00:08:30;;;;;;;0.03;0.03;;;20.40;98.10;;;;;;4993827;28;20030;-77
2022/06/26 00:10:55;;;;;;;0.10;0.10;;;20.40;98.30;;;;;;4994944;28;20022;-76
2022/06/26 00:13:21;;;;;;;0.00;0.00;;;20.50;98.30;;;;;;4993831;28;20030;-77
2022/06/26 00:15:47;;;;;;;0.10;0.10;;;20.30;98.50;;;;;;4993725;28;20042;-77
2022/06/26 00:18:14;;;;;;;0.10;0.10;;;20.10;98.90;;;;;;4993714;28;20490;-76
2022/06/26 00:20:40;;;;;;;0.10;0.10;;;20.00;99.70;;;;;;4994756;28;20030;-77
2022/06/26 00:23:07;;;;;;;0.10;0.10;;;19.90;99.90;;;;;;4994870;28;20049;-77
2022/06/26 00:25:33;;;;;;;0.10;0.10;;;20.00;99.90;;;;;;4993407;28;20111;-77
2022/06/26 00:27:59;;;;;;;0.00;0.00;;;20.00;99.90;;;;;;4994841;28;20018;-76
2022/06/26 00:30:25;;;;;;;0.00;0.00;;;20.10;99.90;;;;;;4993207;28;20508;-78
2022/06/26 00:32:50;;;;;;;0.10;0.10;;;20.30;99.90;;;;;;4993480;28;20113;-76
2022/06/26 00:35:16;;;;;;;0.10;0.10;;;20.30;99.90;;;;;;4993449;28;20022;-77
2022/06/26 00:37:42;;;;;;;0.32;0.32;;;20.20;99.90;;;;;;4993334;28;20081;-77
2022/06/26 00:40:09;;;;;;;0.57;0.50;;;20.10;99.90;;;;;;4994402;28;20097;-77
2022/06/26 00:42:35;;;;;;;0.05;0.05;;;20.20;99.90;;;;;;4994628;28;20381;-77
2022/06/26 00:45:02;;;;;;;0.03;0.03;;;20.20;99.90;;;;;;4994549;28;20053;-76
2022/06/26 00:47:27;;;;;;;0.00;0.00;;;20.20;99.90;;;;;;4993185;28;20022;-77
2022/06/26 00:49:53;;;;;;;0.00;0.00;;;20.10;99.90;;;;;;4994142;28;20029;-78
2022/06/26 00:52:21;;;;;;;0.10;0.10;;;20.00;99.90;;;;;;4994451;28;20154;-77
2022/06/26 00:54:49;;;;;;;0.10;0.10;;;19.90;99.90;;;;;;4993096;28;20034;-77
2022/06/26 00:57:14;;;;;;;0.10;0.10;;;19.90;99.90;;;;;;4994231;28;20022;-77
2022/06/26 00:59:40;;;;;;;0.00;0.00;;;19.90;99.90;;;;;;4992856;28;20037;-77
2022/06/26 01:02:06;;;;;;;0.10;0.10;;;19.90;99.90;;;;;;4994074;28;20037;-76
2022/06/26 01:04:32;;;;;;;0.05;0.05;;;19.70;99.90;;;;;;4994113;28;20026;-76
2022/06/26 01:06:57;;;;;;;0.10;0.10;;;19.50;99.90;;;;;;4994156;28;20022;-77
2022/06/26 01:09:24;;;;;;;0.08;0.08;;;19.60;99.90;;;;;;4992582;28;20073;-76
2022/06/26 01:11:50;;;;;;;0.10;0.10;;;19.50;99.90;;;;;;4992401;28;20053;-77
2022/06/26 01:14:17;;;;;;;0.10;0.10;;;19.40;99.90;;;;;;4993961;28;20053;-76
2022/06/26 01:16:43;;;;;;;0.10;0.10;;;19.50;99.90;;;;;;4992505;28;20360;-77
2022/06/26 01:19:09;;;;;;;0.10;0.10;;;19.40;99.90;;;;;;4993603;28;20085;-77
2022/06/26 01:21:37;;;;;;;0.10;0.10;;;19.40;99.90;;;;;;4992657;28;20021;-77
2022/06/26 01:24:04;;;;;;;0.00;0.00;;;19.40;99.90;;;;;;4993820;28;20113;-77
2022/06/26 01:26:30;;;;;;;0.10;0.10;;;19.30;99.90;;;;;;4992451;28;20026;-77
2022/06/26 01:28:56;;;;;;;0.10;0.10;;;19.00;99.90;;;;;;4992297;28;20022;-77
2022/06/26 01:31:21;;;;;;;0.10;0.10;;;19.10;99.90;;;;;;4992563;28;20022;-77
2022/06/26 01:33:48;;;;;;;0.10;0.10;;;19.20;99.90;;;;;;4976061;28;20117;-77
2022/06/26 01:36:14;;;;;;;0.08;0.08;;;19.40;99.90;;;;;;4993419;28;20089;-76
2022/06/26 01:38:41;;;;;;;0.10;0.10;;;19.30;99.90;;;;;;4992151;28;20165;-76
2022/06/26 01:41:07;;;;;;;0.10;0.10;;;19.10;99.90;;;;;;4992339;28;20076;-77
2022/06/26 01:43:34;;;;;;;0.08;0.08;;;19.10;99.90;;;;;;4991998;28;20129;-77
2022/06/26 01:46:01;;;;;;;0.10;0.10;;;19.00;99.90;;;;;;4992186;28;20438;-77
2022/06/26 01:48:29;;;;;;;0.10;0.10;;;19.10;99.90;;;;;;4992037;28;20062;-77
2022/06/26 01:50:56;;;;;;;0.10;0.10;;;19.10;99.90;;;;;;4991936;28;20422;-77
2022/06/26 01:53:22;;;;;;;0.10;0.10;;;19.10;99.90;;;;;;4993209;28;20029;-77
2022/06/26 01:55:48;;;;;;;0.00;0.00;;;19.10;99.90;;;;;;4991965;28;20032;-77
2022/06/26 01:58:14;;;;;;;0.10;0.10;;;19.10;99.90;;;;;;4992025;28;20109;-76
2022/06/26 02:00:42;;;;;;;0.17;0.17;;;19.00;99.90;;;;;;4992893;28;20034;-76
2022/06/26 02:03:09;;;;;;;0.10;0.10;;;19.00;99.90;;;;;;4991827;28;20023;-77
2022/06/26 02:05:35;;;;;;;0.10;0.10;;;19.10;99.90;;;;;;4991866;28;20268;-77
2022/06/26 02:08:02;;;;;;;0.00;0.00;;;19.30;99.90;;;;;;4993069;28;20029;-77
2022/06/26 02:15:58;;;;;;;0.08;0.08;;;19.40;99.90;;;;;;4992829;28;20034;-77
2022/06/26 02:18:25;;;;;;;0.00;0.00;;;19.20;99.90;;;;;;4992875;28;20054;-76
2022/06/26 02:20:51;;;;;;;0.45;0.45;;;19.30;99.90;;;;;;4992700;28;20022;-77
2022/06/26 02:23:18;;;;;;;0.00;0.00;;;19.40;99.90;;;;;;4990892;28;20027;-77
2022/06/26 02:25:44;;;;;;;0.40;0.10;;;19.50;99.90;;;;;;4991230;28;20085;-77
2022/06/26 02:28:10;;;;;;;0.10;0.10;;;19.20;99.90;;;;;;4991505;28;20105;-77
2022/06/26 02:30:36;;;;;;;0.00;0.00;;;19.10;99.90;;;;;;4992504;28;20114;-77
2022/06/26 02:33:02;;;;;;;0.10;0.10;;;19.00;99.90;;;;;;4991513;28;20030;-77
2022/06/26 02:35:28;;;;;;;0.00;0.00;;;18.90;99.90;;;;;;4992693;28;20501;-77
2022/06/26 02:37:55;;;;;;;0.15;0.15;;;18.90;99.90;;;;;;4992759;28;20042;-76
2022/06/26 02:40:22;;;;;;;0.10;0.10;;;19.00;99.90;;;;;;4992569;28;20026;-77
2022/06/26 02:42:48;;;;;;;0.10;0.10;;;19.00;99.90;;;;;;4991344;28;20026;-77
2022/06/26 02:45:14;;;;;;;0.10;0.10;;;19.10;99.90;;;;;;4991373;28;20509;-77
2022/06/26 02:47:40;;;;;;;0.10;0.10;;;19.20;99.90;;;;;;4992644;28;20025;-77
2022/06/26 02:50:06;;;;;;;0.10;0.10;;;19.30;99.90;;;;;;4991172;28;20034;-77
2022/06/26 02:52:32;;;;;;;0.00;0.00;;;19.40;99.90;;;;;;4992586;28;20034;-77
2022/06/26 02:54:58;;;;;;;0.10;0.10;;;19.40;99.90;;;;;;4992684;28;20037;-77
2022/06/26 02:57:24;;;;;;;0.00;0.00;;;19.50;99.90;;;;;;4991325;28;20170;-77
2022/06/26 02:59:50;;;;;;;0.10;0.10;;;19.70;99.90;;;;;;4991108;28;20029;-77
2022/06/26 03:02:15;;;;;;;0.10;0.10;;;19.60;99.90;;;;;;4992589;28;20014;-77
2022/06/26 03:04:42;;;;;;;0.10;0.10;;;19.60;99.90;;;;;;4992561;28;20030;-77
2022/06/26 03:07:08;;;;;;;0.17;0.17;;;19.30;99.90;;;;;;4991172;28;20034;-77
2022/06/26 03:09:34;;;;;;;0.05;0.05;;;19.00;99.90;;;;;;4990919;28;20691;-77
2022/06/26 03:11:59;;;;;;;0.00;0.00;;;19.00;99.90;;;;;;4992372;28;20023;-76
2022/06/26 03:14:25;;;;;;;0.08;0.08;;;19.10;99.90;;;;;;4991097;28;20018;-76
2022/06/26 03:16:51;;;;;;;0.00;0.00;;;19.20;99.90;;;;;;4990938;28;20046;-77
2022/06/26 03:19:17;;;;;;;0.00;0.00;;;19.30;99.90;;;;;;4990967;28;20384;-77
2022/06/26 03:21:42;;;;;;;0.08;0.08;;;19.40;99.90;;;;;;4992388;28;20093;-77
2022/06/26 03:24:08;;;;;;;0.20;0.20;;;19.60;99.90;;;;;;4990701;28;20027;-77
2022/06/26 03:26:36;;;;;;;0.00;0.00;;;19.70;99.90;;;;;;4992377;28;20022;-77
2022/06/26 03:29:04;;;;;;;0.10;0.10;;;19.80;99.90;;;;;;4974545;28;20367;-77
2022/06/26 03:31:30;;;;;;;0.10;0.10;;;19.80;99.90;;;;;;4990872;28;20018;-77
2022/06/26 03:33:56;;;;;;;0.10;0.10;;;19.80;99.90;;;;;;4992255;28;20034;-77
2022/06/26 03:36:23;;;;;;;0.00;0.00;;;19.80;99.90;;;;;;4994484;28;20166;-77
2022/06/26 03:38:50;;;;;;;7.13;0.63;;;19.60;99.90;;;;;;4978165;28;20478;-77
2022/06/26 03:41:16;;;;;;;0.00;0.00;;;19.50;99.90;;;;;;4995648;28;20105;-77
2022/06/26 03:43:42;;;;;;;0.10;0.10;;;19.30;99.90;;;;;;4994280;28;20053;-77
2022/06/26 03:46:08;;;;;;;0.15;0.15;;;19.10;99.90;;;;;;4994388;28;20485;-77
2022/06/26 03:48:33;;;;;;;0.10;0.10;;;19.10;99.90;;;;;;4995405;28;20101;-77
2022/06/26 03:50:59;;;;;;;0.10;0.10;;;19.10;99.90;;;;;;4995425;28;20022;-77
2022/06/26 03:53:25;;;;;;;0.00;0.00;;;19.40;99.90;;;;;;4995583;28;20037;-77
2022/06/26 03:55:52;;;;;;;0.10;0.10;;;19.60;99.90;;;;;;4995537;28;20037;-77
2022/06/26 03:58:18;;;;;;;0.10;0.10;;;19.60;99.90;;;;;;4995471;28;20033;-77
2022/06/26 04:00:44;;;;;;;0.10;0.10;;;19.50;99.90;;;;;;4993882;28;20106;-76
2022/06/26 04:03:10;;;;;;;0.10;0.10;;;19.50;99.90;;;;;;4994026;28;20102;-76
2022/06/26 04:05:38;;;;;;;0.00;0.00;;;19.50;99.90;;;;;;4994100;28;20033;-76
2022/06/26 04:08:05;;;;;;;0.05;0.05;;;19.60;99.90;;;;;;4993976;28;20044;-77
2022/06/26 04:10:31;;;;;;;0.00;0.00;;;19.50;99.90;;;;;;4977487;28;20027;-77
2022/06/26 04:12:59;;;;;;;0.10;0.10;;;19.60;99.90;;;;;;4994024;28;20065;-77
2022/06/26 04:15:27;;;;;;;0.00;0.00;;;19.60;99.90;;;;;;4993815;28;20065;-77
2022/06/26 04:17:52;;;;;;;0.10;0.10;;;19.50;99.90;;;;;;4995073;28;20021;-77
2022/06/26 04:20:18;;;;;;;0.30;0.30;;;19.40;99.90;;;;;;4993525;28;20105;-76
2022/06/26 04:23:02;;;;;;;0.20;0.20;;;19.30;99.90;;;;;;4993614;28;20033;-77
2022/06/26 04:25:30;;;;;;;0.10;0.10;;;19.10;99.90;;;;;;4993321;28;20026;-76
2022/06/26 04:27:56;;;;;;;0.20;0.20;;;19.10;99.90;;;;;;4994719;28;20038;-77
2022/06/26 04:30:23;;;;;;;0.10;0.10;;;19.00;99.90;;;;;;4994596;28;20134;-77
2022/06/26 04:32:49;;;;;;;0.10;0.10;;;19.00;99.90;;;;;;4993354;28;20104;-77
2022/06/26 04:35:15;;;;;;;0.10;0.10;;;19.00;99.90;;;;;;4994648;28;20032;-77
2022/06/26 04:37:42;;;;;;;3.83;1.10;;;19.10;99.90;;;;;;4994665;28;20054;-77
2022/06/26 04:40:10;;;;;;;0.10;0.10;;;19.10;99.90;;;;;;4994364;28;20029;-77
2022/06/26 04:42:36;;;;;;;0.05;0.05;;;19.20;99.90;;;;;;4993194;28;20114;-77
2022/06/26 04:45:03;;;;;;;0.10;0.10;;;19.40;99.90;;;;;;4993269;28;20471;-76
2022/06/26 04:47:28;;;;;;;0.20;0.17;;;19.30;99.90;;;;;;4992502;28;20028;-77
2022/06/26 04:49:54;;;;;;;0.20;0.20;;;19.20;99.90;;;;;;4994209;28;20437;-77
2022/06/26 04:52:20;;;;;;;0.38;0.38;;;19.00;99.90;;;;;;4994468;28;20041;-77
2022/06/26 04:54:46;;;;;;;0.20;0.20;;;19.00;99.90;;;;;;4994302;28;20033;-77
2022/06/26 04:57:12;;;;;;;0.00;0.00;;;18.90;99.90;;;;;;4993095;28;20402;-77
2022/06/26 04:59:38;;;;;;;0.20;0.20;;;19.00;99.90;;;;;;4992650;28;20022;-76
2022/06/26 05:02:05;;;;;;;0.10;0.10;;;19.10;99.90;;;;;;4994123;28;20037;-77
2022/06/26 05:04:31;;;;;;;0.03;0.03;;;19.10;99.90;;;;;;4994321;28;20091;-77
2022/06/26 05:06:57;;;;;;;0.15;0.15;;;19.20;99.90;;;;;;4992821;28;20061;-77
2022/06/26 05:09:23;;;;;;;0.30;0.30;;;19.30;99.90;;;;;;4992528;28;20061;-75
2022/06/26 05:11:49;;;;;;;0.08;0.08;;;19.30;99.90;;;;;;4976565;28;20184;-74
2022/06/26 05:14:15;;;;;;;0.17;0.17;;;19.20;99.90;;;;;;4992695;28;20053;-75
2022/06/26 05:16:41;;;;;;;0.10;0.10;;;19.20;99.90;;;;;;4993847;28;20027;-76
2022/06/26 05:19:07;;;;;;;0.10;0.10;;;19.20;99.90;;;;;;4993561;28;20045;-76
2022/06/26 05:21:33;;;;;;;0.10;0.10;;;19.30;99.90;;;;;;4993805;28;20084;-76
2022/06/26 05:23:59;;;;;;;0.20;0.20;;;19.30;99.90;;;;;;4992347;28;20118;-76
2022/06/26 05:26:25;;;;;;;0.00;0.00;;;19.50;99.90;;;;;;4992203;28;20081;-76
2022/06/26 05:28:50;;;;;;;0.00;0.00;;;19.40;99.90;;;;;;4993526;28;20019;-76
2022/06/26 05:31:16;;;;;;;0.10;0.10;;;19.40;99.90;;;;;;4976286;28;20033;-76
2022/06/26 05:33:43;;;;;;;0.10;0.10;;;19.50;99.90;;;;;;4993637;28;20029;-76
2022/06/26 05:36:08;;;;;;;0.10;0.10;;;19.70;99.90;;;;;;4993652;28;20034;-76
2022/06/26 05:38:35;;;;;;;0.03;0.03;;;19.90;99.90;;;;;;4992147;28;20504;-76
2022/06/26 05:41:01;;;;;;;0.03;0.03;;;20.00;99.90;;;;;;4993315;28;20030;-76
2022/06/26 05:43:27;;;;;;;0.00;0.00;;;20.20;99.90;;;;;;4992103;28;20110;-76
2022/06/26 05:45:53;;;;;;;0.10;0.10;;;20.30;99.90;;;;;;4992210;28;20509;-76
2022/06/26 05:48:19;;;;;;;0.20;0.20;;;20.30;99.90;;;;;;4992008;28;20492;-76
2022/06/26 05:50:45;;;;;;;0.75;0.40;;;20.30;99.90;;;;;;4991738;28;20031;-76
2022/06/26 05:53:11;;;;;;;0.30;0.30;;;20.20;99.90;;;;;;4975743;28;20030;-76
2022/06/26 05:55:38;;;;;;;0.10;0.10;;;20.20;99.90;;;;;;4993135;28;20061;-76
2022/06/26 05:58:05;;;;;;;0.00;0.00;;;20.20;99.90;;;;;;4992204;28;20096;-76
2022/06/26 06:00:32;;;;;;;0.63;0.63;;;20.40;99.90;;;;;;4991723;28;20026;-76
2022/06/26 06:02:58;;;;;;;0.20;0.20;;;20.50;99.90;;;;;;4992984;28;20517;-77
2022/06/26 06:05:25;;;;;;;0.43;0.43;;;20.40;99.90;;;;;;4992975;28;20030;-77
2022/06/26 06:07:55;;;;;;;0.10;0.10;;;20.60;99.90;;;;;;4991934;28;20053;-76
2022/06/26 06:10:22;;;;;;;0.85;0.85;;;20.70;99.90;;;;;;4992752;28;20169;-76
2022/06/26 06:12:48;;;;;;;0.25;0.25;;;20.70;99.90;;;;;;4991686;28;20371;-76
2022/06/26 06:15:14;;;;;;;0.10;0.10;;;20.80;99.90;;;;;;4992726;28;20478;-76
2022/06/26 06:17:44;;;;;;;3.00;0.38;;;20.90;99.90;;;;;;4993001;28;20041;-77
2022/06/26 06:20:11;;;;;;;0.43;0.43;;;21.10;99.90;;;;;;4975075;28;20398;-77
2022/06/26 06:22:40;;;;;;;0.00;0.00;;;21.20;99.90;;;;;;4991523;28;20053;-77
2022/06/26 06:25:07;;;;;;;0.32;0.32;;;21.20;99.90;;;;;;4992517;28;20093;-77
2022/06/26 06:27:34;;;;;;;0.00;0.00;;;21.30;99.90;;;;;;4991497;28;20034;-77
2022/06/26 06:29:59;;;;;;;0.00;0.00;;;21.50;99.90;;;;;;4992532;28;20033;-77
2022/06/26 06:32:25;;;;;;;0.10;0.10;;;21.80;99.90;;;;;;4992730;28;20444;-76
2022/06/26 06:34:51;;;;;;;0.20;0.20;;;21.80;99.90;;;;;;4991551;28;20030;-77
2022/06/26 06:37:17;;;;;;;0.08;0.08;;;21.90;99.90;;;;;;4991441;28;20069;-77
2022/06/26 06:39:43;;;;;;;0.10;0.10;;;22.00;99.90;;;;;;4991267;28;20183;-77
2022/06/26 06:42:09;;;;;;;0.00;0.00;;;22.00;99.90;;;;;;4992535;28;20030;-76
2022/06/26 06:44:36;;;;;;;0.28;0.15;;;22.00;99.90;;;;;;4991353;28;20023;-76
2022/06/26 06:47:01;;;;;;;0.00;0.00;;;22.10;99.90;;;;;;4991373;28;20427;-77
2022/06/26 06:49:27;;;;;;;0.20;0.20;;;22.30;99.90;;;;;;4992398;28;20029;-77
2022/06/26 06:51:53;;;;;;;0.00;0.00;;;22.30;99.90;;;;;;4991425;28;20391;-77
2022/06/26 06:54:21;;;;;;;0.00;0.00;;;22.30;99.90;;;;;;4991594;28;20125;-76
2022/06/26 06:56:47;;;;;;;3.53;1.95;;;22.40;99.90;;;;;;4975135;28;20026;-77
2022/06/26 06:59:12;;;;;;;0.22;0.22;;;22.70;99.90;;;;;;4990929;28;20117;-77
2022/06/26 07:01:38;;;;;;;0.00;0.00;;;22.70;99.90;;;;;;4991303;28;20053;-77
2022/06/26 07:04:04;;;;;;;0.00;0.00;;;22.90;99.90;;;;;;4974883;28;20593;-77
2022/06/26 07:06:30;;;;;;;0.00;0.00;;;23.10;99.90;;;;;;4991049;28;20023;-76
2022/06/26 07:08:56;;;;;;;0.03;0.03;;;23.20;99.10;;;;;;4992176;28;20018;-77
2022/06/26 07:11:21;;;;;;;0.10;0.10;;;23.40;99.30;;;;;;4978603;28;20390;-77
2022/06/26 07:13:47;;;;;;;0.00;0.00;;;23.40;97.80;;;;;;4996205;28;20079;-77
2022/06/26 07:16:13;;;;;;;0.00;0.00;;;23.60;96.80;;;;;;4996052;28;20461;-76
2022/06/26 07:18:39;;;;;;;0.10;0.10;;;23.70;96.30;;;;;;4978480;28;20494;-77
2022/06/26 07:21:05;;;;;;;0.00;0.00;;;23.80;95.50;;;;;;4994641;28;20502;-77
2022/06/26 07:23:31;;;;;;;0.47;0.20;;;23.80;94.20;;;;;;4994698;28;20084;-77
2022/06/26 07:25:56;;;;;;;0.00;0.00;;;23.80;94.40;;;;;;4978166;28;20109;-77
2022/06/26 07:28:23;;;;;;;0.00;0.00;;;23.80;94.80;;;;;;4978435;28;20023;-77
2022/06/26 07:30:49;;;;;;;0.00;0.00;;;24.00;94.70;;;;;;4995642;28;20026;-77
2022/06/26 07:35:59;;;;;;;0.00;0.00;;;24.50;92.30;;;;;;4995747;28;20026;-77
2022/06/26 07:38:25;;;;;;;0.17;0.17;;;24.50;92.60;;;;;;4994367;28;20494;-77
2022/06/26 07:40:52;;;;;;;0.00;0.00;;;24.60;91.60;;;;;;4994053;28;20030;-77
2022/06/26 07:43:18;;;;;;;0.00;0.00;;;24.80;91.50;;;;;;4978055;28;20035;-77
2022/06/26 07:45:44;;;;;;;0.00;0.00;;;24.90;90.40;;;;;;4995611;28;20098;-77
2022/06/26 07:48:09;;;;;;;0.00;0.00;;;25.10;90.50;;;;;;4995604;28;20750;-77
2022/06/26 07:50:35;;;;;;;0.30;0.30;;;25.10;89.20;;;;;;4995316;28;20025;-77
2022/06/26 07:53:01;;;;;;;0.00;0.00;;;25.10;89.60;;;;;;4995539;28;20110;-77
2022/06/26 07:55:27;;;;;;;0.00;0.00;;;25.30;87.50;;;;;;4995314;28;20053;-77
2022/06/26 07:57:53;;;;;;;0.00;0.00;;;25.60;86.30;;;;;;4995316;28;20038;-74
2022/06/26 08:00:19;;;;;;;0.00;0.00;;;25.50;85.50;;;;;;4995136;28;20048;-75
2022/06/26 08:02:45;;;;;;;0.00;0.00;;;25.70;83.70;;;;;;4995211;28;20109;-74
2022/06/26 08:05:11;;;;;;;0.10;0.10;;;25.60;82.70;;;;;;4993919;28;20121;-74
2022/06/26 08:07:37;;;;;;;0.00;0.00;;;25.50;83.10;;;;;;4995179;28;20023;-74
2022/06/26 08:10:03;;;;;;;0.00;0.00;;;25.70;83.20;;;;;;4994892;28;20395;-74
2022/06/26 08:12:29;;;;;;;0.00;0.00;;;26.00;81.70;;;;;;4993854;28;20403;-75
2022/06/26 08:14:54;;;;;;;0.00;0.00;;;26.20;80.70;;;;;;4993764;28;20026;-75
2022/06/26 08:17:20;;;;;;;0.00;0.00;;;26.30;79.80;;;;;;4995002;28;20165;-74
2022/06/26 08:19:47;;;;;;;0.00;0.00;;;26.60;80.70;;;;;;4994782;28;20113;-75
2022/06/26 08:22:13;;;;;;;0.08;0.08;;;26.80;78.10;;;;;;4993734;28;20192;-75
2022/06/26 08:24:41;;;;;;;0.00;0.00;;;26.60;76.60;;;;;;4993159;28;20027;-74
2022/06/26 08:27:10;;;;;;;0.00;0.00;;;26.80;76.60;;;;;;4994890;28;20018;-74
2022/06/26 08:29:37;;;;;;;0.40;0.40;;;26.90;75.70;;;;;;4993307;28;20018;-74
2022/06/26 08:32:04;;;;;;;0.10;0.10;;;27.00;72.30;;;;;;4994774;28;20101;-74
2022/06/26 08:34:30;;;;;;;0.00;0.00;;;26.80;72.70;;;;;;4994796;28;20050;-75
2022/06/26 08:36:56;;;;;;;0.00;0.00;;;26.90;71.70;;;;;;4977447;28;20053;-74
2022/06/26 08:39:23;;;;;;;0.00;0.00;;;27.10;72.10;;;;;;4994380;28;20077;-75
2022/06/26 08:41:53;;;;;;;0.00;0.00;;;27.30;70.00;;;;;;4993197;28;20506;-75
2022/06/26 08:44:18;;;;;;;0.00;0.00;;;27.70;67.50;;;;;;4993285;28;20490;-75
2022/06/26 08:46:46;;;;;;;0.00;0.00;;;27.80;65.60;;;;;;4993288;28;20076;-75
2022/06/26 08:49:19;;;;;;;0.03;0.03;;;28.00;67.30;;;;;;4992875;28;20141;-74
2022/06/26 08:51:47;;;;;;;0.10;0.10;;;28.20;64.70;;;;;;4994442;28;20513;-74
2022/06/26 08:54:14;;;;;;;0.00;0.00;;;28.00;63.50;;;;;;4993019;28;20038;-74
2022/06/26 08:56:46;;;;;;;0.00;0.00;;;28.20;63.20;;;;;;4992938;28;20026;-77
2022/06/26 08:59:15;;;;;;;0.00;0.00;;;28.50;64.10;;;;;;4992783;28;20488;-74
2022/06/26 09:01:41;;;;;;;5.10;1.25;;;28.30;60.90;;;;;;4993203;28;20037;-74
2022/06/26 09:04:08;;;;;;;0.10;0.10;;;28.10;63.40;;;;;;4992784;28;20056;-75
2022/06/26 09:06:38;;;;;;;0.00;0.00;;;28.50;62.80;;;;;;4992869;28;20122;-75
2022/06/26 09:09:15;;;;;;;0.00;0.00;;;28.70;62.20;;;;;;4992482;28;20030;-74
2022/06/26 09:11:42;;;;;;;0.08;0.08;;;28.70;62.30;;;;;;4976486;28;20389;-74
2022/06/26 09:14:08;;;;;;;0.00;0.00;;;28.70;63.50;;;;;;4993805;28;20391;-75
2022/06/26 09:16:39;;;;;;;0.00;0.00;;;28.90;64.80;;;;;;5021848;23;20054;-90
2022/06/26 09:19:12;;;;;;;;;;;29.00;64.20;;;;;;4995650;28;20026;-90
2022/06/26 09:22:05;;;;;;;0.60;0.32;;;29.40;64.10;;;;;;5017917;28;19957;-90
2022/06/26 09:25:08;;;;;;;0.00;0.00;;;29.50;62.70;;;;;;5002399;28;20043;-90
2022/06/26 09:27:39;;;;;;;0.10;0.10;;;29.50;62.50;;;;;;5001724;28;20015;-90
2022/06/26 09:30:52;;;;;;;0.00;0.00;;;29.60;61.50;;;;;;5018517;28;20018;-90
2022/06/26 09:34:06;;;;;;;0.00;0.00;;;29.80;60.10;;;;;;5010258;28;20038;-92
2022/06/26 09:37:10;;;;;;;0.43;0.32;;;29.80;60.00;;;;;;5018137;28;20050;-92
2022/06/26 09:40:16;;;;;;;0.00;0.00;;;29.70;60.50;;;;;;5001770;28;20011;-91
2022/06/26 09:43:05;;;;;;;0.00;0.00;;;30.10;59.20;;;;;;4999467;28;20031;-92
2022/06/26 09:45:39;;;;;;;0.00;0.00;;;30.20;59.40;;;;;;4994771;28;20026;-91
2022/06/26 09:48:08;;;;;;;0.00;0.00;;;30.70;57.20;;;;;;4996068;28;20053;-91
2022/06/26 09:50:35;;;;;;;0.05;0.03;;;30.70;56.80;;;;;;4993857;28;20023;-91
2022/06/26 09:56:27;;;;;;;0.10;0.10;;;30.20;57.90;;;;;;4984041;28;20483;-90
2022/06/26 09:58:59;;;;;;;2.08;0.17;;;30.30;58.20;;;;;;4994527;28;20427;-91
2022/06/26 10:07:19;;;;;;;0.00;0.00;;;30.70;54.80;;;;;;4993255;28;20072;-91
2022/06/26 10:09:58;;;;;;;0.60;0.08;;;30.60;55.90;;;;;;4977399;28;20033;-91
2022/06/26 10:12:47;;;;;;;0.28;0.28;;;30.60;56.00;;;;;;4993191;28;20092;-91
2022/06/26 10:19:12;;;;;;;0.10;0.10;;;31.30;56.00;;;;;;4992827;28;20566;-90
2022/06/26 10:21:45;;;;;;;0.00;0.00;;;31.00;56.40;;;;;;4913578;29;20040;-90
2022/06/26 10:24:20;;;;;;;0.00;0.00;;;31.20;56.50;;;;;;4971393;28;20037;-91
2022/06/26 10:26:57;;;;;;;0.00;0.00;;;31.20;55.00;;;;;;4977533;28;20069;-90
2022/06/26 10:29:43;;;;;;;0.00;0.00;;;31.40;54.70;;;;;;4978215;28;20487;-91
2022/06/26 10:32:09;;;;;;;0.20;0.20;;;31.40;52.20;;;;;;4977180;28;20037;-90
2022/06/26 10:34:38;;;;;;;0.00;0.00;;;31.30;51.80;;;;;;4977072;28;20034;-91
2022/06/26 10:37:13;;;;;;;0.00;0.00;;;31.20;52.70;;;;;;4992863;28;20054;-91
2022/06/26 10:39:42;;;;;;;0.00;0.00;;;31.40;52.20;;;;;;4995683;28;20049;-91
2022/06/26 10:45:54;;;;;;;0.00;0.00;;;31.40;52.80;;;;;;4994588;28;20466;-91
2022/06/26 10:49:09;;;;;;;0.00;0.00;;;31.30;54.40;;;;;;4997425;28;20035;-91
2022/06/26 10:51:51;;;;;;;0.10;0.10;;;32.00;54.20;;;;;;4998184;28;20022;-90
2022/06/26 10:54:44;;;;;;;;;;;32.00;54.20;;;;;;4993410;28;20037;-91
2022/06/26 10:57:34;;;;;;;0.10;0.08;;;32.00;54.60;;;;;;4979563;28;19909;-90
2022/06/26 11:00:34;;;;;;;0.00;0.00;;;31.80;55.30;;;;;;4975684;28;20117;-91
2022/06/26 11:03:21;;;;;;;0.20;0.20;;;31.50;55.60;;;;;;4997740;28;20015;-91
2022/06/26 11:06:04;;;;;;;0.00;0.00;;;31.70;54.80;;;;;;4980833;28;20459;-91
2022/06/26 11:08:51;;;;;;;0.65;0.65;;;32.10;55.30;;;;;;4996796;28;20033;-91
2022/06/26 11:11:31;;;;;;;0.00;0.00;;;31.70;54.60;;;;;;4996576;28;20030;-91
2022/06/26 11:14:00;;;;;;;0.20;0.05;;;31.80;54.70;;;;;;5006764;28;20090;-91
2022/06/26 11:16:46;;;;;;;0.00;0.00;;;31.50;54.30;;;;;;5019192;28;20027;-90
2022/06/26 11:22:22;;;;;;;0.00;0.00;;;31.90;53.80;;;;;;4996565;28;20491;-91
2022/06/26 11:25:14;;;;;;;0.00;0.00;;;31.80;53.40;;;;;;4996078;28;20120;-91
2022/06/26 11:28:44;;;;;;;0.03;0.00;;;31.80;53.10;;;;;;4981367;28;20102;-90
2022/06/26 11:31:41;;;;;;;0.00;0.00;;;31.80;53.40;;;;;;4996170;28;20117;-91
2022/06/26 11:34:48;;;;;;;0.00;0.00;;;32.00;53.40;;;;;;4996819;28;20093;-91
2022/06/26 11:41:16;;;;;;;0.28;0.20;;;31.90;54.70;;;;;;4993858;28;20033;-91
2022/06/26 11:43:54;;;;;;;0.38;0.38;;;31.50;53.20;;;;;;4995415;28;20034;-91
2022/06/26 11:46:23;;;;;;;0.00;0.00;;;31.40;54.90;;;;;;4980660;28;20018;-91
2022/06/26 11:48:52;;;;;;;0.85;0.20;;;31.30;55.00;;;;;;4980101;28;20027;-92
2022/06/26 11:51:22;;;;;;;0.00;0.00;;;31.20;53.50;;;;;;4996097;28;20053;-92
2022/06/26 11:53:54;;;;;;;0.00;0.00;;;31.10;54.40;;;;;;4995687;28;20096;-91
2022/06/26 11:56:47;;;;;;;0.00;0.00;;;31.60;54.40;;;;;;4994240;28;20388;-92
2022/06/26 11:59:28;;;;;;;0.35;0.35;;;31.70;53.20;;;;;;5002214;28;20015;-92
2022/06/26 12:05:45;;;;;;;0.00;0.00;;;31.00;54.40;;;;;;4971803;28;20126;-91
2022/06/26 12:08:22;;;;;;;0.30;0.20;;;30.90;54.60;;;;;;4941538;28;20066;-93
2022/06/26 12:11:13;;;;;;;0.20;0.20;;;30.80;54.70;;;;;;4994659;28;20045;-92
2022/06/26 12:13:45;;;;;;;1.58;0.15;;;30.80;55.40;;;;;;4997334;28;20023;-91
2022/06/26 12:19:52;;;;;;;0.10;0.10;;;30.90;56.30;;;;;;4986143;28;20054;-91
2022/06/26 12:22:47;;;;;;;0.10;0.10;;;30.60;55.30;;;;;;4996518;28;20495;-91
2022/06/26 12:25:45;;;;;;;1.70;1.60;;;30.50;55.40;;;;;;4995068;28;20081;-91
2022/06/26 12:29:00;;;;;;;;;;;;;;;;;;;;;
2022/06/26 12:31:48;;;;;;;0.00;0.00;;;30.10;58.50;;;;;;4955144;28;20042;-91
2022/06/26 12:34:22;;;;;;;1.00;0.57;;;30.00;58.90;;;;;;4979651;28;20113;-91
2022/06/26 12:36:51;;;;;;;0.00;0.00;;;30.00;59.00;;;;;;4995757;28;20026;-90
2022/06/26 12:39:17;;;;;;;0.15;0.15;;;30.00;59.40;;;;;;4979790;28;20491;-90
2022/06/26 12:41:46;;;;;;;0.75;0.35;;;30.00;58.40;;;;;;4979486;28;20032;-90
2022/06/26 12:44:15;;;;;;;0.28;0.20;;;29.90;59.30;;;;;;4996526;28;20035;-90
2022/06/26 12:46:41;;;;;;;0.00;0.00;;;29.90;59.00;;;;;;4997134;28;20033;-93
2022/06/26 12:49:12;;;;;;;0.10;0.10;;;29.90;59.20;;;;;;4980145;28;20026;-90
2022/06/26 12:51:37;;;;;;;0.00;0.00;;;29.80;59.70;;;;;;4979251;28;20475;-91
2022/06/26 12:54:16;;;;;;;0.10;0.10;;;29.70;60.30;;;;;;4994954;28;20038;-90
2022/06/26 12:56:50;;;;;;;3.40;3.13;;;29.60;60.70;;;;;;4979615;28;20046;-91
2022/06/26 12:59:26;;;;;;;;;;;29.60;61.50;;;;;;4993835;28;20037;-91
2022/06/26 13:01:58;;;;;;;0.10;0.10;;;29.70;60.70;;;;;;4979154;28;19906;-91
2022/06/26 13:04:24;;;;;;;0.10;0.10;;;29.50;61.30;;;;;;4995357;28;20030;-91
2022/06/26 13:07:01;;;;;;;0.00;0.00;;;29.50;61.70;;;;;;4994863;28;20023;-91
2022/06/26 13:09:33;;;;;;;0.10;0.10;;;29.70;59.90;;;;;;4977607;28;20093;-91
2022/06/26 13:12:16;;;;;;;0.00;0.00;;;29.80;59.80;;;;;;4995495;28;20545;-91
2022/06/26 13:14:44;;;;;;;0.03;0.03;;;29.90;60.90;;;;;;4996242;28;20038;-91
2022/06/26 13:21:04;;;;;;;;;;;;;;;;;;;;;
2022/06/26 13:23:54;;;;;;;0.10;0.10;;;29.70;59.10;;;;;;4994547;28;20407;-91
2022/06/26 13:27:00;;;;;;;;;;;;;;;;;;;;;
2022/06/26 13:36:47;;;;;;;0.10;0.10;;;29.40;60.50;;;;;;4916330;29;20160;-91
2022/06/26 13:39:43;;;;;;;0.00;0.00;;;29.40;60.00;;;;;;4900317;29;20032;-91
2022/06/26 13:42:32;;;;;;;0.45;0.17;;;29.50;60.10;;;;;;4969644;28;20034;-91
2022/06/26 13:45:13;;;;;;;2.30;0.20;;;29.20;61.20;;;;;;4995037;28;20027;-91
2022/06/26 13:48:03;;;;;;;0.08;0.08;;;29.30;59.80;;;;;;4993963;28;20403;-91
2022/06/26 13:51:22;;;;;;;0.13;0.13;;;29.30;59.80;;;;;;4993766;28;20058;-91
2022/06/26 13:54:35;;;;;;;0.00;0.00;;;29.30;59.70;;;;;;4979993;28;20110;-90
2022/06/26 13:57:16;;;;;;;0.03;0.03;;;29.30;60.90;;;;;;4995241;28;20023;-91
2022/06/26 14:00:20;;;;;;;;;;;29.20;61.20;;;;;;4994135;28;20042;-91